Hlavní strana
METAR-TAF:

METAR-TAF

Letiště :

Tindúf, Alžírsko

zeměpisná šířka: 27-40N, zeměpisná délka: 008-08W, výška: 431 m

Aktuální stav počasí

Zpráva byla vytvořena před 1 hodinou a 52 minutami, v 14:00 UTC
Jihozápadní vítr 6 kt
Teplota 21°C
Vlhkost vzduchu 21%
Tlak 1010 hPa
Viditelnost: 8000 m
Skoro jasno ve výšce 4600 ft

METAR: DAOF 281400Z 22006KT 8000 FEW046 21/M02 Q1010

Čas: 16:52 (15:52 UTC)

Předpověď počasí

Zpráva byla vytvořena před 1 hodinou a 52 minutami, v 14:00 UTC
Předpověď platná od 28 v 15 UTC do 28 v 24 UTC
Západní vítr 10 kt
Viditelnost: 8000 m
Skoro jasno ve výšce 4600 ft
Pravděpodobnost 30% :
Dočasný
od 28 v 18 UTC do 28 v 21 UTC
Viditelnost: 4000 m
Skoro jasno ve výšce 4000 ft, Vertikální cumulus.
zákal

TAF: DAOF 281400Z 2815/2824 26010KT 8000 FEW046 PROB30 TEMPO 2818/2821 4000 HZ FEW040TCU

Stav a předpovědi počasí z více než 4 000 letišť (zprávy METAR a TAF).

Červené a žluté tečky na mapě představují dostupné meteorologické stanice.

Když kurzor umístíte na tečku, zobrazí se název stanice.

Pak kliknutím zobrazíte stav a předpověď počasí.

Chcete-li změnit mapu, kliknutím na zelené tlačítko se znaménkem +mapu přiblížíte, kliknutím na zelené tlačítko se znaménkem – mapu oddálíte a kliknutím na zelené šipky přejdete na sousední mapy.


METAR-TAF: